Terminal Aerodrome Forecast
Issued by NWS Central Illinois

Home | Current Version | Previous Version | Text Only | Print | Product List | Glossary On
Versions: 1 2 3 4 5 6 7 8 9 10 11 12 13 14 15 16 17 18 19 20 21 22 23
000
FTUS43 KILX 171700 RRA
TAFSPI
TAF
KSPI 171741Z 1718/1818 30008KT P6SM OVC015
     FM180000 VRB03KT P6SM SCT015
     FM181100 VRB03KT P6SM BKN080
     FM181500 VRB03KT 6SM -SN BR BKN035=

USA.gov is the U.S. government's official web portal to all federal, state and local government web resources and services.